Time;durP1;ratioP1;P1;durP2;ratioP2;P2;SDS_P1;SDS_P2;PMS_P1;PMS_P2;Temp;Humidity;BMP_temperature;BMP_pressure;BME280_temperature;BME280_humidity;BME280_pressure;Samples;Min_cycle;Max_cycle;Signal;HPM_P1;HPM_P2
2021/01/16 00:02:34;;;;;;;10.60;4.97;;;6.20;67.90;;;;;;7681357;23;20024;-79
2021/01/16 00:05:35;;;;;;;9.88;5.18;;;6.10;67.90;;;;;;7691979;23;20013;-77
2021/01/16 00:08:38;;;;;;;14.93;5.88;;;6.10;68.00;;;;;;7693327;23;20090;-78
2021/01/16 00:11:39;;;;;;;9.93;5.63;;;6.20;68.00;;;;;;7689208;23;20017;-79
2021/01/16 00:14:40;;;;;;;13.75;5.70;;;6.20;68.00;;;;;;7687913;23;20060;-78
2021/01/16 00:17:41;;;;;;;14.13;7.05;;;6.20;68.10;;;;;;7716708;23;20100;-77
2021/01/16 00:20:44;;;;;;;9.45;5.85;;;6.20;67.90;;;;;;7691693;23;20368;-79
2021/01/16 00:23:45;;;;;;;17.88;5.93;;;6.10;68.00;;;;;;7684205;23;20035;-79
2021/01/16 00:26:46;;;;;;;9.95;5.50;;;6.10;68.20;;;;;;7665049;23;20385;-78
2021/01/16 00:29:46;;;;;;;10.10;5.40;;;6.00;68.10;;;;;;7689194;23;20108;-79
2021/01/16 00:32:48;;;;;;;7.20;4.82;;;6.00;68.40;;;;;;7664198;23;20020;-78
2021/01/16 00:35:50;;;;;;;10.23;5.68;;;5.90;68.60;;;;;;7664698;23;20025;-79
2021/01/16 00:38:51;;;;;;;13.98;6.38;;;5.90;68.70;;;;;;7665033;23;20017;-79
2021/01/16 00:41:52;;;;;;;18.30;6.35;;;5.90;68.80;;;;;;7664663;23;20013;-78
2021/01/16 00:44:53;;;;;;;9.15;5.25;;;5.90;68.80;;;;;;7689720;23;20093;-79
2021/01/16 00:47:54;;;;;;;9.90;5.47;;;6.00;68.90;;;;;;7689178;23;20017;-79
2021/01/16 00:50:56;;;;;;;10.73;5.22;;;6.00;68.80;;;;;;7687830;23;20009;-79
2021/01/16 00:54:13;;;;;;;13.25;6.03;;;6.00;68.70;;;;;;7668037;23;20032;-77
2021/01/16 00:57:14;;;;;;;13.23;6.38;;;6.00;68.50;;;;;;7664928;23;20054;-79
2021/01/16 01:00:16;;;;;;;13.80;6.22;;;6.00;68.40;;;;;;7689801;23;20027;-77
2021/01/16 01:03:21;;;;;;;14.07;6.80;;;6.00;68.30;;;;;;7664684;23;20013;-77
2021/01/16 01:06:21;;;;;;;17.80;6.40;;;6.00;68.40;;;;;;7664693;23;20020;-79
2021/01/16 01:09:22;;;;;;;15.35;6.10;;;6.00;68.20;;;;;;7689826;23;20027;-77
2021/01/16 01:12:23;;;;;;;8.85;4.70;;;6.10;68.10;;;;;;7689358;23;20028;-77
2021/01/16 01:15:25;;;;;;;10.48;5.43;;;6.00;67.90;;;;;;7688625;23;20012;-78
2021/01/16 01:18:27;;;;;;;13.90;5.97;;;6.00;67.80;;;;;;7715391;23;20019;-76
2021/01/16 01:21:27;;;;;;;13.13;6.53;;;6.10;67.80;;;;;;7715731;23;20012;-77
2021/01/16 01:24:28;;;;;;;15.13;7.22;;;6.10;67.80;;;;;;7714620;23;20617;-77
2021/01/16 01:27:29;;;;;;;11.60;5.85;;;6.10;67.70;;;;;;7688924;23;20024;-77
2021/01/16 01:30:31;;;;;;;12.93;5.40;;;6.10;67.70;;;;;;7715440;23;20020;-77
2021/01/16 01:33:32;;;;;;;17.20;6.85;;;6.10;67.50;;;;;;7664736;23;20011;-77
2021/01/16 01:36:36;;;;;;;14.20;6.32;;;6.10;67.30;;;;;;7688851;23;20008;-77
2021/01/16 01:39:37;;;;;;;19.38;6.55;;;6.10;67.30;;;;;;7714676;23;20140;-78
2021/01/16 01:42:39;;;;;;;15.07;7.13;;;6.00;67.30;;;;;;7674580;23;20046;-77
2021/01/16 01:45:40;;;;;;;15.88;6.97;;;6.10;67.30;;;;;;7673997;23;20017;-78
2021/01/16 01:48:42;;;;;;;14.00;6.82;;;6.00;67.10;;;;;;7664528;23;20420;-77
2021/01/16 01:51:44;;;;;;;18.63;6.70;;;6.00;67.00;;;;;;7664113;23;20028;-77
2021/01/16 01:54:51;;;;;;;16.55;7.90;;;6.00;67.10;;;;;;7690531;23;20016;-77
2021/01/16 01:57:56;;;;;;;11.95;5.10;;;6.00;66.90;;;;;;7716627;23;20023;-77
2021/01/16 02:00:57;;;;;;;9.02;5.50;;;6.00;67.00;;;;;;7665885;23;20082;-78
2021/01/16 02:03:58;;;;;;;12.05;6.18;;;6.00;67.00;;;;;;7677821;23;20044;-78
2021/01/16 02:07:00;;;;;;;13.05;6.45;;;6.00;66.80;;;;;;7690646;23;20095;-78
2021/01/16 02:10:01;;;;;;;12.73;6.72;;;6.00;66.90;;;;;;7692177;23;20017;-79
2021/01/16 02:13:02;;;;;;;17.48;7.45;;;5.90;67.00;;;;;;7689441;23;20439;-79
2021/01/16 02:16:21;;;;;;;15.18;6.50;;;5.80;67.00;;;;;;7690512;23;20413;-76
2021/01/16 02:19:42;;;;;;;8.93;5.28;;;5.80;67.10;;;;;;7685421;23;20027;-78
2021/01/16 02:23:06;;;;;;;18.05;7.43;;;5.80;67.10;;;;;;7611716;23;20029;-79
2021/01/16 02:26:34;;;;;;;10.65;5.53;;;5.80;67.20;;;;;;7637017;23;20017;-78
2021/01/16 02:29:35;;;;;;;10.38;4.78;;;5.70;67.10;;;;;;7610364;23;20437;-78
2021/01/16 02:32:39;;;;;;;7.68;4.75;;;5.70;67.00;;;;;;7611246;23;20083;-78
2021/01/16 02:35:49;;;;;;;13.55;6.38;;;5.70;67.00;;;;;;7588405;23;20033;-78
2021/01/16 02:39:28;;;;;;;9.63;5.32;;;5.70;67.10;;;;;;7637500;23;20017;-78
2021/01/16 02:43:03;;;;;;;12.93;4.75;;;5.70;67.00;;;;;;7589385;23;20018;-78
2021/01/16 02:46:15;;;;;;;10.75;6.00;;;5.80;66.80;;;;;;7588218;23;20528;-78
2021/01/16 02:49:45;;;;;;;9.60;5.10;;;5.80;66.70;;;;;;7602803;23;20044;-78
2021/01/16 02:52:48;;;;;;;13.52;6.70;;;5.80;66.60;;;;;;7613914;23;20063;-78
2021/01/16 02:55:50;;;;;;;13.02;5.97;;;5.80;66.50;;;;;;7612779;23;20029;-77
2021/01/16 02:58:51;;;;;;;17.58;7.20;;;5.80;66.20;;;;;;7633324;23;20352;-78
2021/01/16 03:01:54;;;;;;;15.75;6.72;;;5.80;66.80;;;;;;7639590;23;20013;-78
2021/01/16 03:04:55;;;;;;;14.15;7.03;;;5.90;66.20;;;;;;7679686;23;20017;-78
2021/01/16 03:07:57;;;;;;;13.18;5.65;;;5.90;66.20;;;;;;7682132;23;20024;-78
2021/01/16 03:11:00;;;;;;;15.00;6.80;;;5.90;66.10;;;;;;7640838;23;20031;-79
2021/01/16 03:14:05;;;;;;;15.55;6.95;;;5.90;65.80;;;;;;7653442;23;20087;-79
2021/01/16 03:17:17;;;;;;;17.23;7.20;;;5.90;65.60;;;;;;7690800;23;20102;-78
2021/01/16 03:20:19;;;;;;;17.08;7.07;;;5.90;65.50;;;;;;7682371;23;20017;-78
2021/01/16 03:23:20;;;;;;;13.27;6.18;;;5.90;65.60;;;;;;7654147;23;20017;-78
2021/01/16 03:26:21;;;;;;;12.80;5.68;;;5.90;65.50;;;;;;7654480;23;20013;-77
2021/01/16 03:29:22;;;;;;;9.90;5.38;;;6.00;65.30;;;;;;7680257;23;20017;-77
2021/01/16 03:32:23;;;;;;;5.88;2.22;;;6.00;65.00;;;;;;7655350;23;20013;-77
2021/01/16 03:35:26;;;;;;;7.60;3.40;;;5.90;64.60;;;;;;7653452;23;20298;-78
2021/01/16 03:38:27;;;;;;;11.40;5.15;;;5.90;64.70;;;;;;7686815;23;20424;-78
2021/01/16 03:41:28;;;;;;;15.98;6.70;;;5.80;64.70;;;;;;7690539;23;20019;-80
2021/01/16 03:44:29;;;;;;;12.95;5.50;;;5.80;64.90;;;;;;7690543;23;20374;-79
2021/01/16 03:47:30;;;;;;;13.13;5.63;;;5.80;64.80;;;;;;7716991;23;20026;-78
2021/01/16 03:50:30;;;;;;;12.82;5.13;;;5.80;64.70;;;;;;7690683;23;20009;-79
2021/01/16 03:53:31;;;;;;;7.22;3.15;;;5.80;64.60;;;;;;7688790;23;20024;-79
2021/01/16 03:56:32;;;;;;;13.50;6.93;;;5.80;64.70;;;;;;7688090;23;20008;-78
2021/01/16 03:59:33;;;;;;;9.65;4.90;;;5.80;64.50;;;;;;7687564;23;20108;-79
2021/01/16 04:02:34;;;;;;;4.65;1.88;;;5.80;64.60;;;;;;7688652;23;20024;-78
2021/01/16 04:05:35;;;;;;;13.90;5.68;;;5.80;64.50;;;;;;7688272;23;20092;-78
2021/01/16 04:08:36;;;;;;;12.77;6.07;;;5.80;65.30;;;;;;7672044;23;20013;-78
2021/01/16 04:11:37;;;;;;;16.05;7.75;;;5.80;64.50;;;;;;7689317;23;20012;-78
2021/01/16 04:14:38;;;;;;;12.00;5.13;;;5.80;64.40;;;;;;7720798;23;20024;-78
2021/01/16 04:17:39;;;;;;;10.80;6.22;;;5.80;65.10;;;;;;7697998;23;20025;-80
2021/01/16 04:20:40;;;;;;;16.13;6.90;;;5.80;64.10;;;;;;7690438;23;20316;-79
2021/01/16 04:23:41;;;;;;;30.50;2.35;;;5.80;64.00;;;;;;7686764;23;20067;-79
2021/01/16 04:26:42;;;;;;;13.38;6.53;;;5.80;63.90;;;;;;7687122;23;20020;-77
2021/01/16 04:29:43;;;;;;;16.10;7.10;;;5.80;63.50;;;;;;7647462;23;20020;-78
2021/01/16 04:32:44;;;;;;;15.35;5.47;;;5.80;63.60;;;;;;7687532;23;20359;-78
2021/01/16 04:35:45;;;;;;;11.00;6.35;;;5.80;63.70;;;;;;7688129;23;20312;-78
2021/01/16 04:38:46;;;;;;;15.05;6.97;;;5.80;63.50;;;;;;7687711;23;20027;-77
2021/01/16 04:41:53;;;;;;;12.00;6.13;;;5.80;63.40;;;;;;7688116;23;20491;-78
2021/01/16 04:44:58;;;;;;;15.50;5.65;;;5.80;63.30;;;;;;7688368;23;20047;-77
2021/01/16 04:48:00;;;;;;;11.85;5.93;;;5.80;63.40;;;;;;7606383;23;20423;-78
2021/01/16 04:51:03;;;;;;;14.10;6.15;;;5.80;63.30;;;;;;7714293;23;20419;-78
2021/01/16 04:54:04;;;;;;;13.43;6.03;;;5.80;63.40;;;;;;7641317;23;980892;-78
2021/01/16 04:57:05;;;;;;;15.48;5.85;;;5.80;63.30;;;;;;7664689;23;20009;-78
2021/01/16 05:00:09;;;;;;;12.93;6.15;;;5.80;63.10;;;;;;7651833;23;20071;-79
2021/01/16 05:03:13;;;;;;;12.95;6.47;;;5.70;63.00;;;;;;7689860;23;20016;-78
2021/01/16 05:06:14;;;;;;;12.40;5.15;;;5.70;62.90;;;;;;7684553;23;20320;-78
2021/01/16 05:09:16;;;;;;;15.43;6.85;;;5.70;62.80;;;;;;7652539;23;20013;-77
2021/01/16 05:12:33;;;;;;;9.50;5.40;;;5.70;62.80;;;;;;7678502;23;20120;-78
2021/01/16 05:15:37;;;;;;;11.55;5.00;;;5.70;62.80;;;;;;7675127;23;20017;-78
2021/01/16 05:18:43;;;;;;;14.43;5.03;;;5.70;62.70;;;;;;7650771;23;20497;-78
2021/01/16 05:21:44;;;;;;;10.30;5.65;;;5.70;62.60;;;;;;7666926;23;20302;-78
2021/01/16 05:24:45;;;;;;;11.32;5.55;;;5.80;62.70;;;;;;7641618;23;20013;-78
2021/01/16 05:27:57;;;;;;;13.85;6.72;;;5.80;62.40;;;;;;7685976;23;20019;-78
2021/01/16 05:31:01;;;;;;;7.53;4.85;;;5.70;62.10;;;;;;7684350;23;20100;-78
2021/01/16 05:34:03;;;;;;;9.82;4.38;;;5.70;61.90;;;;;;7653479;23;20020;-77
2021/01/16 05:37:04;;;;;;;12.57;5.03;;;5.70;61.90;;;;;;7696144;23;20064;-78
2021/01/16 05:40:07;;;;;;;11.52;5.53;;;5.70;62.10;;;;;;7691194;23;20020;-77
2021/01/16 05:43:10;;;;;;;10.40;5.95;;;5.70;62.00;;;;;;7699516;23;20020;-78
2021/01/16 05:46:13;;;;;;;14.15;6.85;;;5.70;61.90;;;;;;7692654;23;20031;-77
2021/01/16 05:49:18;;;;;;;13.88;6.00;;;5.70;61.70;;;;;;7689654;23;20020;-78
2021/01/16 05:52:19;;;;;;;14.05;7.40;;;5.70;61.70;;;;;;7665003;23;20017;-78
2021/01/16 05:55:22;;;;;;;8.05;4.35;;;5.70;61.50;;;;;;7689023;23;20016;-78
2021/01/16 05:58:27;;;;;;;14.75;6.57;;;5.70;61.50;;;;;;7663783;23;20019;-78
2021/01/16 06:01:36;;;;;;;13.98;5.35;;;5.60;61.60;;;;;;7688478;23;20017;-78
2021/01/16 06:04:46;;;;;;;10.77;5.70;;;5.60;61.80;;;;;;7689540;23;20066;-78
2021/01/16 06:07:48;;;;;;;11.00;5.60;;;5.70;61.80;;;;;;7651267;23;20420;-78
2021/01/16 06:10:56;;;;;;;10.43;5.72;;;5.70;61.70;;;;;;7651019;23;20028;-78
2021/01/16 06:14:02;;;;;;;10.00;5.75;;;5.80;61.70;;;;;;7650592;23;20017;-78
2021/01/16 06:17:06;;;;;;;11.13;4.55;;;5.80;61.50;;;;;;7659963;23;20043;-78
2021/01/16 06:20:07;;;;;;;9.38;5.32;;;5.80;61.30;;;;;;7652494;23;20108;-78
2021/01/16 06:23:15;;;;;;;12.35;5.70;;;5.80;61.10;;;;;;7689357;23;20055;-78
2021/01/16 06:26:19;;;;;;;14.30;6.45;;;5.80;61.00;;;;;;7599357;23;20013;-77
2021/01/16 06:29:28;;;;;;;15.52;6.65;;;5.80;61.10;;;;;;7651336;23;20013;-78
2021/01/16 06:32:30;;;;;;;12.27;5.63;;;5.70;61.00;;;;;;7652078;23;20104;-79
2021/01/16 06:35:32;;;;;;;14.60;5.43;;;5.70;61.80;;;;;;7651672;23;20324;-80
2021/01/16 06:38:35;;;;;;;8.98;5.55;;;5.70;61.00;;;;;;7684510;23;20023;-79
2021/01/16 06:41:44;;;;;;;13.20;6.22;;;5.80;61.20;;;;;;7688812;23;20087;-78
2021/01/16 06:44:45;;;;;;;;;;;5.80;61.10;;;;;;7686871;23;20328;-78
2021/01/16 06:47:53;;;;;;;13.85;5.63;;;5.80;60.90;;;;;;7688576;23;19908;-78
2021/01/16 06:50:56;;;;;;;11.45;6.53;;;5.80;60.90;;;;;;7689249;23;20016;-79
2021/01/16 06:54:04;;;;;;;14.68;7.00;;;5.90;60.70;;;;;;7680562;23;20021;-80
2021/01/16 06:57:08;;;;;;;13.80;5.43;;;5.90;60.90;;;;;;7629329;23;20013;-78
2021/01/16 07:00:10;;;;;;;18.17;6.38;;;5.90;60.70;;;;;;7639713;23;20025;-77
2021/01/16 07:03:14;;;;;;;13.88;6.93;;;5.90;60.60;;;;;;7679878;23;20070;-79
2021/01/16 07:06:17;;;;;;;17.30;6.75;;;5.90;60.40;;;;;;7678790;23;20413;-79
2021/01/16 07:09:20;;;;;;;14.35;5.95;;;5.90;60.40;;;;;;7650938;23;20009;-79
2021/01/16 07:12:21;;;;;;;13.25;6.88;;;5.90;60.30;;;;;;7652318;23;20009;-79
2021/01/16 07:15:23;;;;;;;11.38;5.85;;;5.90;60.20;;;;;;7651137;23;20088;-78
2021/01/16 07:18:24;;;;;;;12.10;6.25;;;5.80;60.20;;;;;;7684108;23;20015;-77
2021/01/16 07:21:26;;;;;;;12.05;5.65;;;5.80;60.40;;;;;;7651692;23;20420;-77
2021/01/16 07:24:27;;;;;;;14.32;6.72;;;5.80;60.20;;;;;;7680282;23;20461;-78
2021/01/16 07:27:29;;;;;;;13.02;6.28;;;5.80;60.00;;;;;;7679241;23;20416;-79
2021/01/16 07:30:32;;;;;;;17.55;6.47;;;5.80;59.90;;;;;;7715790;23;20070;-72
2021/01/16 07:33:34;;;;;;;13.65;6.10;;;5.80;60.00;;;;;;7690820;23;20008;-73
2021/01/16 07:36:35;;;;;;;15.70;6.57;;;5.80;60.00;;;;;;7685643;23;20013;-74
2021/01/16 07:39:40;;;;;;;14.93;5.70;;;5.80;59.90;;;;;;7716183;23;20040;-73
2021/01/16 07:43:09;;;;;;;15.88;7.03;;;5.80;60.00;;;;;;7688826;23;20428;-74
2021/01/16 07:46:11;;;;;;;9.18;4.45;;;5.90;60.00;;;;;;7654105;23;20024;-73
2021/01/16 07:49:19;;;;;;;10.75;6.25;;;5.90;59.60;;;;;;7652765;23;20440;-74
2021/01/16 07:52:27;;;;;;;15.60;6.75;;;5.90;59.50;;;;;;7646490;23;20025;-72
2021/01/16 07:55:37;;;;;;;11.55;6.10;;;5.90;59.60;;;;;;7677552;23;20052;-72
2021/01/16 07:58:42;;;;;;;12.05;5.93;;;5.90;59.50;;;;;;7677191;23;20025;-73
2021/01/16 08:02:17;;;;;;;14.27;5.85;;;5.90;59.50;;;;;;7677196;23;20088;-72
2021/01/16 08:05:29;;;;;;;11.80;5.47;;;5.90;59.50;;;;;;7675477;23;20080;-75
2021/01/16 08:08:55;;;;;;;12.43;5.53;;;5.90;59.40;;;;;;7652938;23;20107;-77
2021/01/16 08:12:00;;;;;;;17.00;7.07;;;6.00;59.30;;;;;;7676556;23;20024;-75
2021/01/16 08:15:02;;;;;;;14.75;6.63;;;6.00;59.10;;;;;;7676557;23;20005;-75
2021/01/16 08:18:04;;;;;;;16.50;6.78;;;6.00;59.20;;;;;;7675468;23;20009;-76
2021/01/16 08:21:08;;;;;;;11.35;5.70;;;6.00;59.10;;;;;;7675845;23;20355;-75
2021/01/16 08:24:16;;;;;;;12.13;5.82;;;6.10;59.10;;;;;;7677273;23;20027;-77
2021/01/16 08:27:22;;;;;;;9.90;5.88;;;6.20;58.90;;;;;;7669771;23;20027;-76
2021/01/16 08:30:25;;;;;;;14.50;6.55;;;6.10;58.80;;;;;;7675465;23;20087;-76
2021/01/16 08:33:36;;;;;;;13.57;6.43;;;6.20;58.70;;;;;;7640819;23;20018;-77
2021/01/16 08:36:37;;;;;;;15.65;5.97;;;6.20;58.60;;;;;;7640938;23;20028;-77
2021/01/16 08:39:43;;;;;;;12.80;6.18;;;6.30;58.50;;;;;;7637979;23;20033;-77
2021/01/16 08:42:52;;;;;;;14.13;6.35;;;6.30;58.40;;;;;;7640331;23;20006;-77
2021/01/16 08:46:07;;;;;;;13.80;5.50;;;6.30;58.30;;;;;;7651650;23;20036;-75
2021/01/16 08:49:17;;;;;;;11.40;5.47;;;6.40;58.30;;;;;;7676329;23;20067;-77
2021/01/16 08:52:34;;;;;;;11.85;6.25;;;6.50;58.10;;;;;;7676527;23;20087;-78
2021/01/16 08:55:35;;;;;;;14.10;6.97;;;6.50;58.00;;;;;;7685036;23;20443;-76
2021/01/16 08:58:38;;;;;;;14.63;6.53;;;6.50;57.80;;;;;;7626158;23;20013;-78
2021/01/16 09:01:39;;;;;;;14.55;6.68;;;6.50;57.60;;;;;;7651322;23;20024;-77
2021/01/16 09:04:42;;;;;;;12.60;5.80;;;6.50;57.60;;;;;;7677252;23;20028;-77
2021/01/16 09:07:44;;;;;;;21.27;9.00;;;6.60;57.70;;;;;;7649893;23;20013;-76
2021/01/16 09:10:45;;;;;;;13.48;7.20;;;6.50;57.60;;;;;;7676766;23;20013;-79
2021/01/16 09:13:47;;;;;;;16.10;7.85;;;6.60;57.60;;;;;;7688554;23;20016;-76
2021/01/16 09:16:48;;;;;;;18.80;9.70;;;6.60;57.60;;;;;;7688051;23;20016;-76
2021/01/16 09:19:57;;;;;;;14.02;7.25;;;6.70;57.60;;;;;;7713723;23;20024;-78
2021/01/16 09:23:18;;;;;;;21.75;10.48;;;6.70;57.40;;;;;;7656988;23;20097;-76
2021/01/16 09:26:23;;;;;;;10.02;5.57;;;6.70;57.10;;;;;;7683859;23;20040;-76
2021/01/16 09:29:27;;;;;;;14.55;7.07;;;6.70;57.00;;;;;;7713891;23;20087;-76
2021/01/16 09:32:34;;;;;;;11.52;5.53;;;6.70;56.90;;;;;;7713396;23;20023;-76
2021/01/16 09:35:39;;;;;;;25.90;9.80;;;6.70;56.90;;;;;;7676984;23;20294;-76
2021/01/16 09:38:40;;;;;;;10.80;5.35;;;6.70;56.70;;;;;;7650664;23;20013;-77
2021/01/16 09:41:42;;;;;;;17.70;7.25;;;6.70;56.60;;;;;;7681917;23;20071;-77
2021/01/16 09:44:43;;;;;;;14.55;6.80;;;6.80;56.60;;;;;;7657185;23;20009;-76
2021/01/16 09:47:49;;;;;;;15.63;7.60;;;6.80;56.40;;;;;;7674117;23;20025;-76
2021/01/16 09:50:55;;;;;;;14.05;7.18;;;6.90;56.30;;;;;;7682329;23;20019;-76
2021/01/16 09:54:16;;;;;;;11.38;6.05;;;6.90;56.20;;;;;;7663288;23;20012;-75
2021/01/16 09:57:33;;;;;;;14.40;7.53;;;7.00;55.90;;;;;;7657694;23;20025;-78
2021/01/16 10:00:35;;;;;;;13.50;6.05;;;7.10;55.50;;;;;;7662348;23;20320;-77
2021/01/16 10:03:37;;;;;;;16.40;6.35;;;7.10;55.20;;;;;;7688689;23;20028;-77
2021/01/16 10:06:39;;;;;;;81.65;26.88;;;7.10;55.30;;;;;;7687738;23;20090;-76
2021/01/16 10:09:47;;;;;;;26.38;10.63;;;7.10;55.20;;;;;;7687877;23;20035;-76
2021/01/16 10:12:55;;;;;;;18.23;8.10;;;7.10;54.90;;;;;;7687258;23;20160;-76
2021/01/16 10:16:01;;;;;;;13.23;6.93;;;7.10;55.50;;;;;;7682049;23;20013;-77
2021/01/16 10:19:04;;;;;;;19.60;7.63;;;7.00;55.10;;;;;;7680728;23;20141;-77
2021/01/16 10:22:10;;;;;;;13.27;6.18;;;7.10;55.20;;;;;;7649265;23;20009;-76
2021/01/16 10:25:12;;;;;;;25.77;12.20;;;7.10;55.00;;;;;;7624100;23;20016;-77
2021/01/16 10:28:26;;;;;;;12.38;6.43;;;7.00;54.90;;;;;;7713332;23;20012;-77
2021/01/16 10:31:27;;;;;;;11.63;5.78;;;6.90;55.20;;;;;;7687288;23;20019;-75
2021/01/16 10:34:30;;;;;;;14.65;6.85;;;6.90;55.60;;;;;;7712164;23;20104;-79
2021/01/16 10:37:40;;;;;;;15.07;5.68;;;6.90;55.60;;;;;;7687423;23;20084;-75
2021/01/16 10:40:49;;;;;;;13.82;6.63;;;7.00;55.60;;;;;;7684835;23;20048;-75
2021/01/16 10:44:11;;;;;;;15.40;6.55;;;7.00;55.60;;;;;;7647679;23;20031;-75
2021/01/16 10:47:32;;;;;;;18.70;6.45;;;7.10;55.50;;;;;;7667754;23;20064;-76
2021/01/16 10:50:35;;;;;;;14.00;6.47;;;7.10;55.40;;;;;;7662726;23;20032;-76
2021/01/16 10:53:40;;;;;;;16.80;6.85;;;7.10;55.50;;;;;;7685434;23;20024;-76
2021/01/16 10:57:05;;;;;;;14.15;6.85;;;7.10;55.40;;;;;;7671256;23;20078;-76
2021/01/16 11:00:13;;;;;;;15.13;6.53;;;7.10;55.60;;;;;;7645540;23;20025;-77
2021/01/16 11:03:18;;;;;;;14.10;6.32;;;7.10;55.40;;;;;;7652494;23;20569;-75
2021/01/16 11:06:25;;;;;;;10.02;5.70;;;7.10;55.30;;;;;;7626456;23;20044;-77
2021/01/16 11:09:36;;;;;;;13.88;6.63;;;7.10;55.00;;;;;;7653437;23;20015;-76
2021/01/16 11:12:38;;;;;;;17.23;5.57;;;7.10;55.00;;;;;;7714769;23;20082;-77
2021/01/16 11:15:42;;;;;;;12.60;5.65;;;7.10;54.80;;;;;;7688423;23;20114;-77
2021/01/16 11:18:44;;;;;;;21.15;7.47;;;7.10;54.90;;;;;;7714599;23;20365;-78
2021/01/16 11:21:57;;;;;;;13.70;6.35;;;7.20;55.40;;;;;;7655552;23;20118;-77
2021/01/16 11:25:12;;;;;;;13.57;6.53;;;7.20;54.70;;;;;;7655735;23;20016;-76
2021/01/16 11:28:20;;;;;;;19.58;7.72;;;7.20;54.80;;;;;;7677593;23;20275;-76
2021/01/16 11:31:34;;;;;;;15.40;6.93;;;7.20;54.80;;;;;;7637472;23;20005;-76
2021/01/16 11:35:08;;;;;;;15.18;6.32;;;7.30;54.80;;;;;;7677441;23;20067;-77
2021/01/16 11:38:40;;;;;;;19.17;6.82;;;7.40;54.80;;;;;;7653035;23;20511;-76
2021/01/16 11:41:54;;;;;;;12.75;7.43;;;7.40;54.60;;;;;;7673000;23;20091;-76
2021/01/16 11:44:58;;;;;;;15.50;6.88;;;7.40;54.50;;;;;;7627048;23;20027;-76
2021/01/16 11:48:01;;;;;;;12.80;5.80;;;7.40;54.40;;;;;;7651461;23;20023;-77
2021/01/16 11:51:15;;;;;;;17.60;7.10;;;7.40;54.40;;;;;;7651062;23;20017;-76
2021/01/16 11:54:26;;;;;;;14.23;6.03;;;7.40;54.50;;;;;;7661515;23;20096;-74
2021/01/16 11:57:26;;;;;;;17.88;7.13;;;7.40;54.60;;;;;;7659053;23;20012;-77
2021/01/16 12:00:29;;;;;;;16.52;6.97;;;7.40;54.40;;;;;;7650463;23;20325;-75
2021/01/16 12:03:31;;;;;;;17.08;7.53;;;7.30;54.50;;;;;;7649946;23;20017;-77
2021/01/16 12:06:33;;;;;;;13.73;6.28;;;7.30;54.40;;;;;;7678284;23;20021;-77
2021/01/16 12:09:37;;;;;;;17.38;7.50;;;7.30;54.50;;;;;;7651112;23;20043;-76
2021/01/16 12:12:39;;;;;;;17.63;7.65;;;7.20;54.60;;;;;;7651539;23;20090;-76
2021/01/16 12:15:39;;;;;;;17.17;7.72;;;7.30;54.60;;;;;;7686459;23;20420;-77
2021/01/16 12:18:41;;;;;;;14.77;7.45;;;7.30;54.30;;;;;;7688875;23;20020;-76
2021/01/16 12:21:48;;;;;;;16.15;7.05;;;7.30;54.30;;;;;;7688126;23;20020;-77
2021/01/16 12:24:53;;;;;;;13.80;6.28;;;7.20;54.10;;;;;;7690221;23;20019;-77
2021/01/16 12:27:54;;;;;;;17.92;6.97;;;7.20;54.10;;;;;;7688902;23;20082;-79
2021/01/16 12:30:56;;;;;;;18.95;6.10;;;7.10;54.00;;;;;;7688191;23;20253;-76
2021/01/16 12:34:04;;;;;;;12.18;5.43;;;7.00;54.20;;;;;;7715672;23;20020;-75
2021/01/16 12:37:08;;;;;;;14.57;7.25;;;7.00;54.30;;;;;;7689797;23;20031;-75
2021/01/16 12:40:22;;;;;;;10.63;5.55;;;7.00;54.40;;;;;;7692041;23;20417;-76
2021/01/16 12:43:23;;;;;;;8.15;4.50;;;7.00;54.40;;;;;;7673549;23;20017;-77
2021/01/16 12:46:24;;;;;;;14.52;6.70;;;6.90;54.40;;;;;;7654320;23;20021;-77
2021/01/16 12:49:27;;;;;;;14.55;6.65;;;6.90;54.40;;;;;;7697413;23;20016;-77
2021/01/16 12:52:29;;;;;;;16.23;6.07;;;6.90;54.70;;;;;;7628078;23;20080;-77
2021/01/16 12:55:30;;;;;;;18.45;5.15;;;6.90;54.70;;;;;;7685064;23;20013;-77
2021/01/16 12:58:38;;;;;;;9.20;5.25;;;7.00;54.50;;;;;;7676026;23;20063;-76
2021/01/16 13:01:40;;;;;;;14.20;6.07;;;7.00;54.30;;;;;;7638803;23;20080;-75
2021/01/16 13:04:41;;;;;;;16.58;6.75;;;6.90;54.00;;;;;;7639254;23;20080;-75
2021/01/16 13:07:43;;;;;;;9.93;5.57;;;6.90;54.20;;;;;;7639374;23;20410;-75
2021/01/16 13:10:50;;;;;;;7.43;4.53;;;7.00;54.20;;;;;;7614899;23;20026;-75
2021/01/16 13:13:56;;;;;;;14.38;6.25;;;7.00;54.10;;;;;;7639680;23;20076;-75
2021/01/16 13:16:58;;;;;;;19.30;7.50;;;6.90;54.10;;;;;;7639116;23;20013;-74
2021/01/16 13:20:02;;;;;;;15.85;6.97;;;6.90;54.20;;;;;;7638684;23;20084;-76
2021/01/16 13:23:03;;;;;;;12.57;6.45;;;7.00;54.10;;;;;;7639084;23;20483;-74
2021/01/16 13:26:05;;;;;;;14.88;7.10;;;7.10;54.00;;;;;;7676671;23;20017;-75
2021/01/16 13:29:07;;;;;;;17.23;6.97;;;7.20;53.70;;;;;;7675830;23;20079;-75
2021/01/16 13:32:08;;;;;;;11.73;5.97;;;7.30;53.70;;;;;;7676033;23;20032;-75
2021/01/16 13:35:11;;;;;;;12.85;6.13;;;7.50;53.60;;;;;;7677869;23;20429;-75
2021/01/16 13:38:13;;;;;;;15.10;6.68;;;7.70;53.20;;;;;;7678721;23;20028;-74
2021/01/16 13:41:14;;;;;;;16.02;6.20;;;7.80;52.70;;;;;;7677006;23;20096;-74
2021/01/16 13:44:21;;;;;;;12.75;5.57;;;7.90;52.60;;;;;;7676464;23;20435;-74
2021/01/16 13:47:24;;;;;;;8.77;4.00;;;7.90;52.30;;;;;;7676456;23;20041;-74
2021/01/16 13:50:25;;;;;;;12.52;5.50;;;8.00;52.20;;;;;;7688895;23;20554;-74
2021/01/16 13:53:28;;;;;;;14.15;7.18;;;7.90;51.70;;;;;;7683796;23;20020;-74
2021/01/16 13:56:45;;;;;;;15.70;6.55;;;7.90;51.50;;;;;;7679594;23;20016;-77
2021/01/16 13:59:56;;;;;;;15.32;5.70;;;7.90;52.00;;;;;;7636957;23;20036;-77
2021/01/16 14:02:58;;;;;;;11.55;5.75;;;7.90;51.80;;;;;;7661400;23;20017;-74
2021/01/16 14:06:01;;;;;;;14.32;6.32;;;7.90;51.70;;;;;;7637781;23;20018;-73
2021/01/16 14:09:02;;;;;;;11.45;4.82;;;7.80;51.90;;;;;;7637102;23;20022;-74
2021/01/16 14:12:07;;;;;;;18.00;6.70;;;7.70;51.80;;;;;;7638914;23;20021;-74
2021/01/16 14:15:10;;;;;;;13.23;6.15;;;7.60;51.90;;;;;;7639954;23;20031;-75
2021/01/16 14:18:27;;;;;;;14.57;6.38;;;7.60;52.10;;;;;;7636987;23;20028;-75
2021/01/16 14:21:28;;;;;;;12.80;5.63;;;7.50;52.30;;;;;;7640074;23;20022;-75
2021/01/16 14:24:29;;;;;;;10.65;5.40;;;7.40;52.40;;;;;;7639024;23;20017;-74
2021/01/16 14:27:46;;;;;;;13.18;5.97;;;7.30;52.60;;;;;;7637521;23;20156;-74
2021/01/16 14:30:47;;;;;;;12.82;5.80;;;7.20;52.80;;;;;;7638902;23;20358;-75
2021/01/16 14:33:59;;;;;;;19.90;6.88;;;7.10;52.90;;;;;;7640671;23;20021;-75
2021/01/16 14:37:00;;;;;;;14.07;6.88;;;7.10;53.10;;;;;;7642119;23;20040;-74
2021/01/16 14:40:02;;;;;;;15.82;5.20;;;7.00;53.10;;;;;;7666713;23;20052;-73
2021/01/16 14:43:08;;;;;;;16.42;6.57;;;7.00;53.20;;;;;;7652449;23;20040;-76
2021/01/16 14:46:11;;;;;;;12.45;5.65;;;7.00;53.20;;;;;;7676249;23;20029;-77
2021/01/16 14:49:25;;;;;;;11.63;5.55;;;7.00;53.30;;;;;;7651334;23;20032;-76
2021/01/16 14:52:32;;;;;;;7.32;3.92;;;6.90;53.30;;;;;;7677099;23;20025;-76
2021/01/16 14:55:34;;;;;;;12.50;6.25;;;6.90;53.40;;;;;;7641556;23;20013;-78
2021/01/16 14:58:37;;;;;;;11.90;5.53;;;6.90;53.50;;;;;;7677033;23;20023;-78
2021/01/16 15:01:41;;;;;;;12.93;6.35;;;6.90;53.60;;;;;;7675322;23;20059;-78
2021/01/16 15:04:42;;;;;;;12.13;6.45;;;6.80;53.60;;;;;;7673407;23;20344;-76
2021/01/16 15:07:43;;;;;;;9.30;5.13;;;6.80;53.70;;;;;;7675369;23;20397;-77
2021/01/16 15:10:49;;;;;;;15.43;6.50;;;6.80;53.80;;;;;;7674949;23;20074;-76
2021/01/16 15:13:51;;;;;;;10.43;5.40;;;6.80;53.80;;;;;;7675424;23;20013;-80
2021/01/16 15:16:53;;;;;;;11.05;6.13;;;6.80;53.70;;;;;;7651655;23;20044;-79
2021/01/16 15:19:55;;;;;;;14.68;7.30;;;6.80;53.80;;;;;;7677400;23;20029;-78
2021/01/16 15:22:56;;;;;;;14.35;6.47;;;6.80;53.90;;;;;;7653133;23;20067;-80
2021/01/16 15:25:57;;;;;;;12.10;6.10;;;6.80;54.00;;;;;;7680069;23;20017;-80
2021/01/16 15:29:00;;;;;;;12.32;5.85;;;6.80;54.00;;;;;;7668025;23;20491;-81
2021/01/16 15:32:01;;;;;;;15.52;7.68;;;6.80;54.00;;;;;;7692401;23;20021;-79
2021/01/16 15:35:09;;;;;;;17.25;6.75;;;6.70;54.00;;;;;;7682805;23;20075;-79
2021/01/16 15:38:15;;;;;;;16.08;7.25;;;6.70;54.10;;;;;;7680831;23;20099;-81
2021/01/16 15:41:17;;;;;;;15.02;5.88;;;6.70;54.10;;;;;;7678863;23;20025;-80
2021/01/16 15:44:47;;;;;;;16.75;5.97;;;6.70;54.20;;;;;;7678376;23;20021;-80
2021/01/16 15:47:51;;;;;;;15.40;6.30;;;6.70;54.30;;;;;;7677331;23;20083;-82
2021/01/16 15:50:53;;;;;;;15.32;7.10;;;6.70;54.30;;;;;;7678680;23;20048;-79
2021/01/16 15:53:55;;;;;;;12.50;6.20;;;6.60;54.10;;;;;;7675379;23;20029;-80
2021/01/16 15:56:57;;;;;;;15.98;6.35;;;6.60;54.30;;;;;;7678232;23;20017;-80
2021/01/16 16:00:13;;;;;;;20.33;7.53;;;6.50;54.30;;;;;;7675987;23;20108;-81
2021/01/16 16:03:17;;;;;;;18.92;6.10;;;6.50;54.40;;;;;;7672173;23;20017;-80
2021/01/16 16:06:18;;;;;;;15.75;7.00;;;6.50;54.60;;;;;;7674080;23;20088;-78